createdAt,value
2017-11-09T00:03:59.670Z,97270.77
2017-11-09T00:06:27.245Z,97268.64
2017-11-09T00:08:54.817Z,97272.42
2017-11-09T00:11:22.774Z,97272.90
2017-11-09T00:13:50.313Z,97270.27
2017-11-09T00:16:17.861Z,97280.39
2017-11-09T00:18:45.435Z,97278.30
2017-11-09T00:21:13.012Z,97277.47
2017-11-09T00:23:40.579Z,97281.22
2017-11-09T00:26:08.143Z,97277.00
2017-11-09T00:28:35.984Z,97275.23
2017-11-09T00:31:03.513Z,97275.66
2017-11-09T00:33:31.061Z,97274.00
2017-11-09T00:35:58.661Z,97278.61
2017-11-09T00:38:26.169Z,97279.02
2017-11-09T00:40:53.837Z,97281.09
2017-11-09T00:43:21.410Z,97275.16
2017-11-09T00:45:48.959Z,97276.84
2017-11-09T00:48:16.525Z,97282.75
2017-11-09T00:50:44.080Z,97277.67
2017-11-09T00:53:11.637Z,97279.28
2017-11-09T00:55:39.175Z,97288.15
2017-11-09T00:58:06.734Z,97285.23
2017-11-09T01:00:34.265Z,97287.28
2017-11-09T01:03:01.837Z,97284.33
2017-11-09T01:05:29.399Z,97287.24
2017-11-09T01:07:57.168Z,97285.20
2017-11-09T01:10:24.758Z,97279.72
2017-11-09T01:12:52.317Z,97283.06
2017-11-09T01:15:20.250Z,97283.54
2017-11-09T01:17:47.799Z,97282.32
2017-11-09T01:20:15.341Z,97283.62
2017-11-09T01:22:42.926Z,97283.66
2017-11-09T01:25:10.464Z,97284.92
2017-11-09T01:27:38.147Z,97285.31
2017-11-09T01:30:05.748Z,97283.16
2017-11-09T01:32:33.342Z,97283.11
2017-11-09T01:35:00.884Z,97285.95
2017-11-09T01:37:28.425Z,97284.61
2017-11-09T01:39:55.989Z,97297.25
2017-11-09T01:42:23.539Z,97298.04
2017-11-09T01:44:51.111Z,97292.56
2017-11-09T01:47:18.666Z,97298.86
2017-11-09T01:49:46.233Z,97296.73
2017-11-09T01:52:13.774Z,97297.13
2017-11-09T01:54:41.701Z,97292.95
2017-11-09T01:57:09.259Z,97295.09
2017-11-09T01:59:36.802Z,97300.52
2017-11-09T02:02:04.352Z,97301.34
2017-11-09T02:04:32.043Z,97299.22
2017-11-09T02:06:59.593Z,97303.79
2017-11-09T02:09:27.140Z,97301.58
2017-11-09T02:11:55.126Z,97305.80
2017-11-09T02:14:22.684Z,97306.66
2017-11-09T02:16:50.282Z,97304.09
2017-11-09T02:19:17.873Z,97306.23
2017-11-09T02:21:45.406Z,97308.75
2017-11-09T02:24:13.135Z,97304.06
2017-11-09T02:26:40.680Z,97303.91
2017-11-09T02:29:08.616Z,97308.86
2017-11-09T02:31:36.183Z,97308.42
2017-11-09T02:34:03.726Z,97308.73
2017-11-09T02:36:31.311Z,97315.52
2017-11-09T02:38:58.898Z,97310.86
2017-11-09T02:41:26.625Z,97307.99
2017-11-09T02:43:54.180Z,97310.16
2017-11-09T02:46:22.112Z,97309.41
2017-11-09T02:48:49.702Z,97317.45
2017-11-09T02:51:17.262Z,97318.32
2017-11-09T02:53:44.854Z,97318.32
2017-11-09T02:56:12.479Z,97317.84
2017-11-09T02:58:40.054Z,97325.02
2017-11-09T03:01:07.593Z,97327.02
2017-11-09T03:06:09.288Z,97325.24
2017-11-09T03:08:37.127Z,97323.16
2017-11-09T03:11:04.668Z,97324.41
2017-11-09T03:13:32.215Z,97326.50
2017-11-09T03:15:59.888Z,97324.84
2017-11-09T03:18:27.447Z,97325.28
2017-11-09T03:20:55.027Z,97321.90
2017-11-09T03:23:22.581Z,97321.50
2017-11-09T03:25:50.521Z,97313.51
2017-11-09T03:28:18.056Z,97322.37
2017-11-09T03:30:45.695Z,97317.29
2017-11-09T03:33:13.410Z,97318.12
2017-11-09T03:35:40.960Z,97319.89
2017-11-09T03:38:08.536Z,97314.89
2017-11-09T03:40:36.116Z,97315.33
2017-11-09T03:43:04.049Z,97317.41
2017-11-09T03:45:31.669Z,97308.16
2017-11-09T03:47:59.211Z,97320.33
2017-11-09T03:50:26.777Z,97311.89
2017-11-09T03:52:54.393Z,97317.41
2017-11-09T03:55:21.966Z,97314.89
2017-11-09T03:57:49.500Z,97319.45
2017-11-09T04:00:17.404Z,97307.72
2017-11-09T04:02:45.003Z,97306.03
2017-11-09T04:05:12.587Z,97302.67
2017-11-09T04:07:40.296Z,97309.84
2017-11-09T04:10:08.003Z,97308.59
2017-11-09T04:12:35.655Z,97309.38
2017-11-09T04:15:03.404Z,97306.06
2017-11-09T04:17:31.344Z,97305.23
2017-11-09T04:19:58.908Z,97310.33
2017-11-09T04:22:26.450Z,97309.45
2017-11-09T04:24:54.038Z,97305.72
2017-11-09T04:27:21.606Z,97313.75
2017-11-09T04:29:49.339Z,97308.71
2017-11-09T04:32:16.901Z,97309.14
2017-11-09T04:34:44.482Z,97315.02
2017-11-09T04:37:12.036Z,97311.66
2017-11-09T04:39:39.580Z,97320.92
2017-11-09T04:42:07.146Z,97321.83
2017-11-09T04:44:34.716Z,97321.39
2017-11-09T04:47:02.279Z,97327.78
2017-11-09T04:49:29.820Z,97326.95
2017-11-09T04:51:57.374Z,97331.59
2017-11-09T04:54:24.909Z,97331.99
2017-11-09T04:56:52.548Z,97331.16
2017-11-09T04:59:20.090Z,97332.43
2017-11-09T05:01:47.645Z,97329.44
2017-11-09T05:04:15.213Z,97333.22
2017-11-09T05:06:42.755Z,97329.00
2017-11-09T05:09:10.501Z,97337.43
2017-11-09T05:11:38.112Z,97344.60
2017-11-09T05:14:05.931Z,97352.16
2017-11-09T05:16:33.479Z,97353.86
2017-11-09T05:19:01.034Z,97349.20
2017-11-09T05:21:28.636Z,97345.86
2017-11-09T05:23:56.180Z,97354.68
2017-11-09T05:26:23.744Z,97359.77
2017-11-09T05:28:51.280Z,97368.55
2017-11-09T05:31:19.144Z,97372.28
2017-11-09T05:33:46.700Z,97376.11
2017-11-09T05:36:14.268Z,97367.29
2017-11-09T05:38:41.825Z,97373.19
2017-11-09T05:41:09.376Z,97379.50
2017-11-09T05:43:36.953Z,97365.59
2017-11-09T05:46:04.514Z,97366.42
2017-11-09T05:48:32.092Z,97376.90
2017-11-09T05:50:59.814Z,97365.55
2017-11-09T05:53:27.342Z,97377.68
2017-11-09T05:55:54.900Z,97381.47
2017-11-09T05:58:22.457Z,97384.85
2017-11-09T06:00:50.425Z,97382.30
2017-11-09T06:03:18.087Z,97388.12
2017-11-09T06:05:45.755Z,97388.51
2017-11-09T06:08:13.293Z,97397.41
2017-11-09T06:10:40.842Z,97397.41
2017-11-09T06:13:08.439Z,97405.41
2017-11-09T06:15:36.013Z,97408.38
2017-11-09T06:18:03.605Z,97403.37
2017-11-09T06:20:31.141Z,97403.02
2017-11-09T06:22:58.802Z,97410.58
2017-11-09T06:25:26.347Z,97408.19
2017-11-09T06:27:53.911Z,97411.53
2017-11-09T06:30:21.456Z,97418.31
2017-11-09T06:32:49.068Z,97426.31
2017-11-09T06:35:16.642Z,97430.49
2017-11-09T06:37:44.191Z,97430.56
2017-11-09T06:40:12.071Z,97433.48
2017-11-09T06:42:39.620Z,97437.27
2017-11-09T06:45:07.161Z,97439.80
2017-11-09T06:47:34.757Z,97446.09
2017-11-09T06:50:02.306Z,97444.88
2017-11-09T06:52:29.867Z,97453.31
2017-11-09T06:54:57.413Z,97451.66
2017-11-09T06:57:25.008Z,97454.17
2017-11-09T06:59:53.337Z,97459.70
2017-11-09T07:02:20.908Z,97461.88
2017-11-09T07:04:48.461Z,97474.17
2017-11-09T07:07:16.023Z,97476.69
2017-11-09T07:09:43.605Z,97478.00
2017-11-09T07:12:11.175Z,97485.25
2017-11-09T07:14:39.336Z,97475.17
2017-11-09T07:17:07.086Z,97480.61
2017-11-09T07:19:34.666Z,97487.83
2017-11-09T07:22:02.256Z,97494.99
2017-11-09T07:24:29.822Z,97492.52
2017-11-09T07:26:57.670Z,97496.69
2017-11-09T07:29:25.375Z,97496.30
2017-11-09T07:31:53.051Z,97497.12
2017-11-09T07:34:20.761Z,97505.91
2017-11-09T07:36:48.301Z,97509.30
2017-11-09T07:39:15.880Z,97508.91
2017-11-09T07:41:43.425Z,97511.48
2017-11-09T07:44:11.105Z,97513.56
2017-11-09T07:46:38.645Z,97504.73
2017-11-09T07:49:06.219Z,97511.44
2017-11-09T07:51:33.785Z,97510.21
2017-11-09T07:54:01.422Z,97511.13
2017-11-09T07:56:28.996Z,97502.77
2017-11-09T07:58:56.552Z,97509.48
2017-11-09T08:01:24.410Z,97517.95
2017-11-09T08:03:52.044Z,97527.73
2017-11-09T08:06:19.616Z,97523.60
2017-11-09T08:08:47.215Z,97523.25
2017-11-09T08:11:14.772Z,97528.78
2017-11-09T08:13:42.336Z,97532.64
2017-11-09T08:16:09.876Z,97533.04
2017-11-09T08:18:37.882Z,97539.47
2017-11-09T08:21:05.416Z,97538.30
2017-11-09T08:23:33.013Z,97541.61
2017-11-09T08:26:02.125Z,97542.56
2017-11-09T08:28:33.072Z,97534.60
2017-11-09T08:31:02.072Z,97537.69
2017-11-09T08:33:31.155Z,97539.55
2017-11-09T08:35:58.732Z,97537.54
2017-11-09T08:38:26.296Z,97542.59
2017-11-09T08:40:53.906Z,97542.55
2017-11-09T08:43:21.486Z,97545.98
2017-11-09T08:45:49.066Z,97545.31
2017-11-09T08:48:16.612Z,97547.14
2017-11-09T08:50:44.181Z,97545.95
2017-11-09T08:53:11.766Z,97547.22
2017-11-09T08:55:39.443Z,97554.48
2017-11-09T08:58:07.039Z,97543.56
2017-11-09T09:00:34.618Z,97549.17
2017-11-09T09:03:02.179Z,97545.98
2017-11-09T09:05:29.774Z,97552.72
2017-11-09T09:07:57.340Z,97550.23
2017-11-09T09:10:24.921Z,97542.91
2017-11-09T09:12:52.498Z,97545.11
2017-11-09T09:15:20.113Z,97546.06
2017-11-09T09:17:47.662Z,97546.22
2017-11-09T09:20:16.047Z,97545.83
2017-11-09T09:22:43.583Z,97546.30
2017-11-09T09:25:11.666Z,97550.28
2017-11-09T09:27:39.237Z,97550.87
2017-11-09T09:30:09.806Z,97560.66
2017-11-09T09:32:47.207Z,97561.53
2017-11-09T09:38:38.777Z,97558.76
2017-11-09T09:41:06.383Z,97561.80
2017-11-09T09:43:33.933Z,97557.29
2017-11-09T09:46:01.913Z,97561.83
2017-11-09T09:48:29.461Z,97568.70
2017-11-09T09:50:57.002Z,97564.63
2017-11-09T09:53:24.668Z,97568.53
2017-11-09T09:55:52.247Z,97562.25
2017-11-09T09:58:19.809Z,97559.03
2017-11-09T10:00:47.349Z,97557.09
2017-11-09T10:03:14.935Z,97559.33
2017-11-09T10:05:42.488Z,97556.52
2017-11-09T10:08:10.042Z,97551.64
2017-11-09T10:10:37.622Z,97555.50
2017-11-09T10:13:05.167Z,97553.38
2017-11-09T10:15:32.870Z,97553.08
2017-11-09T10:18:00.416Z,97551.17
2017-11-09T10:20:28.101Z,97550.62
2017-11-09T10:22:55.683Z,97550.77
2017-11-09T10:25:23.242Z,97549.19
2017-11-09T10:27:50.847Z,97542.17
2017-11-09T10:30:18.412Z,97541.95
2017-11-09T10:32:46.001Z,97542.30
2017-11-09T10:35:13.561Z,97545.93
2017-11-09T10:37:41.208Z,97545.20
2017-11-09T10:40:08.774Z,97541.23
2017-11-09T10:42:36.338Z,97535.20
2017-11-09T10:45:03.915Z,97534.89
2017-11-09T10:47:31.463Z,97537.55
2017-11-09T10:49:59.041Z,97537.28
2017-11-09T10:52:26.594Z,97545.00
2017-11-09T10:54:55.401Z,97542.78
2017-11-09T10:57:23.003Z,97545.28
2017-11-09T10:59:50.568Z,97542.31
2017-11-09T11:02:18.130Z,97541.35
2017-11-09T11:04:46.030Z,97540.18
2017-11-09T11:07:13.613Z,97540.34
2017-11-09T11:09:41.163Z,97533.98
2017-11-09T11:12:08.739Z,97533.55
2017-11-09T11:14:36.303Z,97532.16
2017-11-09T11:17:03.873Z,97528.82
2017-11-09T11:19:31.534Z,97536.29
2017-11-09T11:21:59.124Z,97528.16
2017-11-09T11:24:26.697Z,97533.27
2017-11-09T11:26:54.250Z,97538.39
2017-11-09T11:29:21.858Z,97535.33
2017-11-09T11:31:49.419Z,97536.90
2017-11-09T11:34:16.978Z,97533.50
2017-11-09T11:36:44.551Z,97535.59
2017-11-09T11:39:12.179Z,97537.64
2017-11-09T11:41:39.733Z,97535.80
2017-11-09T11:44:07.320Z,97536.17
2017-11-09T11:46:34.903Z,97533.08
2017-11-09T11:49:02.477Z,97530.84
2017-11-09T11:51:30.089Z,97529.11
2017-11-09T11:53:57.657Z,97537.11
2017-11-09T11:56:25.192Z,97531.58
2017-11-09T11:58:52.996Z,97533.67
2017-11-09T12:01:20.552Z,97534.51
2017-11-09T12:03:48.112Z,97533.14
2017-11-09T12:06:15.687Z,97530.58
2017-11-09T12:08:43.273Z,97535.53
2017-11-09T12:11:10.867Z,97535.11
2017-11-09T12:13:38.583Z,97533.27
2017-11-09T12:16:06.272Z,97531.57
2017-11-09T12:18:33.825Z,97531.17
2017-11-09T12:21:01.409Z,97529.41
2017-11-09T12:23:28.965Z,97528.54
2017-11-09T12:25:56.551Z,97526.01
2017-11-09T12:28:24.236Z,97526.73
2017-11-09T12:30:51.798Z,97528.40
2017-11-09T12:33:19.424Z,97523.34
2017-11-09T12:35:46.981Z,97526.30
2017-11-09T12:38:14.563Z,97514.35
2017-11-09T12:40:42.378Z,97520.20
2017-11-09T12:43:09.938Z,97527.36
2017-11-09T12:45:37.514Z,97518.88
2017-11-09T12:48:05.097Z,97526.02
2017-11-09T12:50:32.670Z,97520.94
2017-11-09T12:53:00.219Z,97526.75
2017-11-09T12:55:28.095Z,97524.62
2017-11-09T12:57:55.647Z,97520.83
2017-11-09T13:00:23.231Z,97522.09
2017-11-09T13:02:50.804Z,97522.48
2017-11-09T13:05:18.369Z,97524.08
2017-11-09T13:07:46.519Z,97516.93
2017-11-09T13:10:14.082Z,97519.48
2017-11-09T13:12:41.726Z,97518.23
2017-11-09T13:15:09.270Z,97525.81
2017-11-09T13:17:36.881Z,97519.92
2017-11-09T13:20:04.488Z,97530.08
2017-11-09T13:22:32.069Z,97523.36
2017-11-09T13:24:59.655Z,97528.81
2017-11-09T13:27:27.253Z,97525.02
2017-11-09T13:29:54.858Z,97529.24
2017-11-09T13:32:22.419Z,97528.81
2017-11-09T13:34:49.977Z,97525.88
2017-11-09T13:37:17.671Z,97525.41
2017-11-09T13:39:45.234Z,97523.78
2017-11-09T13:42:12.872Z,97524.19
2017-11-09T13:44:40.423Z,97525.88
2017-11-09T13:47:08.022Z,97522.52
2017-11-09T13:49:35.605Z,97521.66
2017-11-09T13:52:03.157Z,97525.92
2017-11-09T13:54:30.748Z,97526.25
2017-11-09T13:56:58.312Z,97521.59
2017-11-09T13:59:25.874Z,97524.55
2017-11-09T14:01:53.405Z,97527.95
2017-11-09T14:04:20.973Z,97527.55
2017-11-09T14:06:48.507Z,97530.47
2017-11-09T14:09:16.056Z,97527.98
2017-11-09T14:11:43.646Z,97530.08
2017-11-09T14:14:11.313Z,97525.78
2017-11-09T14:16:38.882Z,97528.66
2017-11-09T14:19:06.448Z,97531.16
2017-11-09T14:21:34.102Z,97534.84
2017-11-09T14:24:01.688Z,97529.68
2017-11-09T14:26:29.329Z,97528.81
2017-11-09T14:28:56.891Z,97537.66
2017-11-09T14:31:24.462Z,97534.27
2017-11-09T14:33:52.154Z,97528.85
2017-11-09T14:36:19.746Z,97531.41
2017-11-09T14:38:51.130Z,97526.36
2017-11-09T14:41:18.718Z,97526.39
2017-11-09T14:43:46.294Z,97528.92
2017-11-09T14:46:14.971Z,97529.36
2017-11-09T14:48:42.586Z,97533.11
2017-11-09T14:51:10.475Z,97537.38
2017-11-09T14:53:38.111Z,97530.22
2017-11-09T14:56:05.687Z,97538.64
2017-11-09T14:58:33.285Z,97541.16
2017-11-09T15:01:00.888Z,97543.62
2017-11-09T15:03:28.473Z,97548.56
2017-11-09T15:05:56.115Z,97550.66
2017-11-09T15:08:23.721Z,97553.55
2017-11-09T15:10:51.287Z,97554.81
2017-11-09T15:13:18.845Z,97558.96
2017-11-09T15:15:51.954Z,97561.05
2017-11-09T15:18:19.526Z,97558.53
2017-11-09T15:20:47.144Z,97563.95
2017-11-09T15:23:14.754Z,97560.98
2017-11-09T15:25:42.452Z,97576.14
2017-11-09T15:28:10.025Z,97572.75
2017-11-09T15:30:37.578Z,97576.11
2017-11-09T15:33:07.055Z,97579.43
2017-11-09T15:35:37.372Z,97579.39
2017-11-09T15:38:04.954Z,97582.67
2017-11-09T15:40:32.543Z,97588.12
2017-11-09T15:43:00.142Z,97583.86
2017-11-09T15:45:27.716Z,97585.95
2017-11-09T15:47:55.273Z,97585.45
2017-11-09T15:50:22.873Z,97591.73
2017-11-09T15:52:50.448Z,97592.52
2017-11-09T15:55:18.052Z,97588.69
2017-11-09T15:57:45.626Z,97595.44
2017-11-09T16:00:13.235Z,97584.50
2017-11-09T16:02:40.799Z,97585.69
2017-11-09T16:05:08.352Z,97586.48
2017-11-09T16:07:38.935Z,97588.53
2017-11-09T16:10:06.515Z,97593.98
2017-11-09T16:12:34.133Z,97596.03
2017-11-09T16:15:01.875Z,97607.01
2017-11-09T16:17:29.423Z,97596.86
2017-11-09T16:19:56.998Z,97599.34
2017-11-09T16:22:24.563Z,97603.09
2017-11-09T16:24:53.010Z,97601.33
2017-11-09T16:27:23.532Z,97603.81
2017-11-09T16:29:51.170Z,97608.42
2017-11-09T16:32:18.742Z,97608.42
2017-11-09T16:34:46.327Z,97613.01
2017-11-09T16:37:13.937Z,97617.66
2017-11-09T16:39:41.513Z,97616.00
2017-11-09T16:42:09.123Z,97619.41
2017-11-09T16:44:37.250Z,97625.32
2017-11-09T16:47:04.918Z,97624.89
2017-11-09T16:49:32.490Z,97626.55
2017-11-09T16:52:00.374Z,97628.20
2017-11-09T16:54:27.929Z,97626.47
2017-11-09T16:56:55.500Z,97632.34
2017-11-09T16:59:23.131Z,97638.66
2017-11-09T17:01:50.712Z,97631.91
2017-11-09T17:04:18.300Z,97642.80
2017-11-09T17:06:46.125Z,97639.84
2017-11-09T17:09:13.718Z,97643.20
2017-11-09T17:11:41.294Z,97652.03
2017-11-09T17:14:08.872Z,97647.38
2017-11-09T17:16:36.437Z,97656.22
2017-11-09T17:19:04.001Z,97658.74
2017-11-09T17:21:31.634Z,97654.05
2017-11-09T17:23:59.325Z,97656.57
2017-11-09T17:26:26.982Z,97658.27
2017-11-09T17:28:54.576Z,97651.91
2017-11-09T17:31:22.164Z,97661.15
2017-11-09T17:33:49.738Z,97667.94
2017-11-09T17:36:17.352Z,97661.19
2017-11-09T17:38:44.956Z,97657.44
2017-11-09T17:41:12.512Z,97657.40
2017-11-09T17:43:40.228Z,97664.98
2017-11-09T17:46:08.169Z,97665.33
2017-11-09T17:48:35.839Z,97667.03
2017-11-09T17:51:03.662Z,97667.77
2017-11-09T17:53:32.025Z,97663.11
2017-11-09T17:56:08.073Z,97662.72
2017-11-09T17:58:38.616Z,97667.34
2017-11-09T18:01:06.268Z,97667.33
2017-11-09T18:03:35.625Z,97673.69
2017-11-09T18:06:03.214Z,97675.34
2017-11-09T18:08:30.881Z,97672.39
2017-11-09T18:10:58.478Z,97670.30
2017-11-09T18:13:26.112Z,97673.69
2017-11-09T18:15:53.710Z,97679.53
2017-11-09T18:18:21.310Z,97683.32
2017-11-09T18:20:48.881Z,97684.98
2017-11-09T18:23:16.499Z,97682.45
2017-11-09T18:25:44.147Z,97683.28
2017-11-09T18:28:11.727Z,97686.98
2017-11-09T18:30:39.632Z,97684.06
2017-11-09T18:33:07.200Z,97684.89
2017-11-09T18:35:35.008Z,97683.23
2017-11-09T18:38:02.603Z,97684.50
2017-11-09T18:40:30.286Z,97687.02
2017-11-09T18:42:57.925Z,97681.53
2017-11-09T18:45:25.553Z,97689.94
2017-11-09T18:47:53.176Z,97691.59
2017-11-09T18:50:20.775Z,97692.86
2017-11-09T18:52:48.363Z,97692.78
2017-11-09T18:55:16.145Z,97692.77
2017-11-09T18:57:43.780Z,97693.17
2017-11-09T19:00:11.383Z,97692.73
2017-11-09T19:02:38.989Z,97693.59
2017-11-09T19:05:06.781Z,97695.69
2017-11-09T19:07:34.435Z,97691.82
2017-11-09T19:10:02.119Z,97699.47
2017-11-09T19:12:29.762Z,97699.47
2017-11-09T19:14:57.424Z,97698.61
2017-11-09T19:17:25.146Z,97704.44
2017-11-09T19:19:52.796Z,97702.75
2017-11-09T19:22:20.421Z,97702.80
2017-11-09T19:24:48.052Z,97709.50
2017-11-09T19:27:15.693Z,97704.05
2017-11-09T19:29:43.283Z,97707.36
2017-11-09T19:32:10.961Z,97711.55
2017-11-09T19:34:38.907Z,97717.81
2017-11-09T19:37:06.731Z,97716.94
2017-11-09T19:39:34.424Z,97716.06
2017-11-09T19:42:02.106Z,97720.69
2017-11-09T19:44:29.821Z,97717.33
2017-11-09T19:46:57.531Z,97717.72
2017-11-09T19:49:25.390Z,97708.45
2017-11-09T19:51:53.221Z,97710.50
2017-11-09T19:54:21.150Z,97710.89
2017-11-09T19:56:48.896Z,97714.24
2017-11-09T19:59:16.750Z,97708.36
2017-11-09T20:01:44.727Z,97712.59
2017-11-09T20:04:12.614Z,97711.36
2017-11-09T20:06:40.438Z,97712.16
2017-11-09T20:09:08.216Z,97709.20
2017-11-09T20:11:36.531Z,97707.06
2017-11-09T20:14:04.261Z,97704.09
2017-11-09T20:16:32.951Z,97709.10
2017-11-09T20:19:00.950Z,97706.14
2017-11-09T20:21:28.759Z,97704.40
2017-11-09T20:23:56.529Z,97702.31
2017-11-09T20:26:24.295Z,97698.08
2017-11-09T20:28:52.286Z,97699.73
2017-11-09T20:31:20.297Z,97698.86
2017-11-09T20:33:48.237Z,97704.70
2017-11-09T20:36:15.960Z,97703.87
2017-11-09T20:38:43.870Z,97700.88
2017-11-09T20:41:11.727Z,97705.48
2017-11-09T20:43:39.792Z,97699.17
2017-11-09T20:46:07.539Z,97702.56
2017-11-09T20:48:35.437Z,97696.22
2017-11-09T20:51:03.251Z,97694.95
2017-11-09T20:53:30.924Z,97700.78
2017-11-09T20:55:58.787Z,97702.09
2017-11-09T20:58:26.647Z,97702.52
2017-11-09T21:00:54.297Z,97705.48
2017-11-09T21:03:22.088Z,97703.39
2017-11-09T21:05:49.897Z,97700.00
2017-11-09T21:08:17.491Z,97705.05
2017-11-09T21:10:45.133Z,97707.62
2017-11-09T21:13:12.730Z,97704.27
2017-11-09T21:15:40.315Z,97705.52
2017-11-09T21:18:07.957Z,97713.48
2017-11-09T21:20:35.557Z,97705.91
2017-11-09T21:23:03.167Z,97712.63
2017-11-09T21:25:30.739Z,97711.01
2017-11-09T21:27:58.353Z,97707.62
2017-11-09T21:30:26.059Z,97706.31
2017-11-09T21:32:53.683Z,97705.05
2017-11-09T21:35:21.269Z,97701.66
2017-11-09T21:37:48.875Z,97699.52
2017-11-09T21:40:16.473Z,97704.56
2017-11-09T21:42:44.099Z,97705.00
2017-11-09T21:45:11.656Z,97706.70
2017-11-09T21:47:39.306Z,97707.48
2017-11-09T21:50:06.924Z,97701.99
2017-11-09T21:52:34.512Z,97703.66
2017-11-09T21:55:02.242Z,97703.70
2017-11-09T21:57:29.800Z,97697.34
2017-11-09T21:59:57.379Z,97695.26
2017-11-09T22:02:24.934Z,97694.42
2017-11-09T22:04:52.503Z,97693.59
2017-11-09T22:07:20.107Z,97697.78
2017-11-09T22:09:47.666Z,97696.47
2017-11-09T22:12:15.232Z,97697.73
2017-11-09T22:14:42.808Z,97700.17
2017-11-09T22:17:10.437Z,97699.77
2017-11-09T22:19:38.013Z,97691.34
2017-11-09T22:22:05.583Z,97688.77
2017-11-09T22:24:33.164Z,97689.20
2017-11-09T22:27:00.843Z,97699.30
2017-11-09T22:29:28.428Z,97700.17
2017-11-09T22:31:56.138Z,97702.25
2017-11-09T22:34:23.725Z,97705.65
2017-11-09T22:36:51.357Z,97703.95
2017-11-09T22:39:18.919Z,97703.95
2017-11-09T22:41:46.511Z,97703.91
2017-11-09T22:44:14.056Z,97705.13
2017-11-09T22:46:41.655Z,97700.91
2017-11-09T22:49:09.219Z,97701.77
2017-11-09T22:51:36.803Z,97700.99
2017-11-09T22:54:04.382Z,97696.34
2017-11-09T22:56:31.927Z,97689.63
2017-11-09T22:58:59.495Z,97689.19
2017-11-09T23:01:27.068Z,97687.06
2017-11-09T23:03:54.649Z,97687.85
2017-11-09T23:06:22.261Z,97689.94
2017-11-09T23:08:49.836Z,97688.62
2017-11-09T23:11:17.374Z,97695.80
2017-11-09T23:13:45.301Z,97699.99
2017-11-09T23:16:12.896Z,97694.94
2017-11-09T23:18:40.497Z,97692.85
2017-11-09T23:21:08.122Z,97690.33
2017-11-09T23:23:35.682Z,97684.41
2017-11-09T23:26:03.236Z,97686.53
2017-11-09T23:28:30.953Z,97681.84
2017-11-09T23:30:58.481Z,97677.58
2017-11-09T23:33:26.051Z,97677.92
2017-11-09T23:35:53.622Z,97682.23
2017-11-09T23:38:21.697Z,97678.48
2017-11-09T23:40:49.247Z,97679.75
2017-11-09T23:43:16.964Z,97683.54
2017-11-09T23:45:44.533Z,97691.98
2017-11-09T23:48:12.147Z,97690.28
2017-11-09T23:50:39.727Z,97687.76
2017-11-09T23:53:07.265Z,97683.09
2017-11-09T23:55:35.166Z,97677.27
2017-11-09T23:58:02.729Z,97670.95
